createdAt,value
2023-03-23T15:58:40.089Z,70.15
2023-03-23T16:01:13.558Z,71.05
2023-03-23T16:03:57.073Z,71.23
2023-03-23T16:06:26.684Z,70.89
2023-03-23T16:08:55.266Z,71.00
2023-03-23T16:11:28.845Z,70.92
2023-03-23T16:13:56.221Z,70.58
2023-03-23T16:16:24.315Z,70.93
2023-03-23T16:18:53.309Z,70.93
2023-03-23T16:21:20.224Z,71.16
2023-03-23T16:23:46.927Z,71.25
2023-03-23T16:26:14.980Z,71.26
2023-03-23T16:28:42.516Z,71.83
2023-03-23T16:31:09.527Z,71.66
2023-03-23T16:33:36.497Z,71.10
2023-03-23T16:36:06.091Z,71.70
2023-03-23T16:38:32.840Z,71.68
2023-03-23T16:41:16.345Z,71.26
2023-03-23T16:43:42.981Z,71.20
2023-03-23T16:46:12.405Z,70.72
2023-03-23T16:48:39.150Z,70.40
2023-03-23T16:51:06.645Z,70.61
2023-03-23T16:53:33.506Z,70.95
2023-03-23T16:56:00.376Z,71.10
2023-03-23T16:58:29.478Z,70.60
2023-03-23T17:00:56.182Z,70.93
2023-03-23T17:03:25.732Z,71.16
2023-03-23T17:05:55.317Z,70.82
2023-03-23T17:08:24.462Z,71.59
2023-03-23T17:10:53.813Z,71.55
2023-03-23T17:13:20.564Z,71.45
2023-03-23T17:15:47.750Z,72.04
2023-03-23T17:18:16.412Z,71.56
2023-03-23T17:20:43.492Z,71.58
2023-03-23T17:23:10.428Z,72.01
2023-03-23T17:25:37.155Z,72.12
2023-03-23T17:28:05.133Z,72.33
2023-03-23T17:30:33.524Z,72.94
2023-03-23T17:33:00.432Z,73.07
2023-03-23T17:35:29.336Z,73.38
2023-03-23T17:37:55.978Z,73.44
2023-03-23T17:40:23.584Z,74.11
2023-03-23T17:42:50.513Z,73.55
2023-03-23T17:45:17.183Z,73.49
2023-03-23T17:47:43.820Z,73.69
2023-03-23T17:50:12.613Z,74.20
2023-03-23T17:52:40.515Z,74.46
2023-03-23T17:55:08.002Z,74.16
2023-03-23T17:57:35.295Z,74.23
2023-03-23T18:00:03.012Z,74.21
2023-03-23T18:02:32.511Z,74.80
2023-03-23T18:04:59.860Z,74.35
2023-03-23T18:07:31.523Z,74.64
2023-03-23T18:09:59.860Z,74.39
2023-03-23T18:12:27.103Z,74.51
2023-03-23T18:15:00.052Z,75.45
2023-03-23T18:17:29.601Z,75.11
2023-03-23T18:19:56.543Z,75.22
2023-03-23T18:22:26.209Z,75.10
2023-03-23T18:24:53.007Z,75.88
2023-03-23T18:27:19.667Z,75.33
2023-03-23T18:29:49.221Z,75.72
2023-03-23T18:32:17.180Z,75.63
2023-03-23T18:34:43.994Z,75.79
2023-03-23T18:37:10.882Z,75.63
2023-03-23T18:39:38.580Z,75.55
2023-03-23T18:42:06.012Z,75.19
2023-03-23T18:44:37.844Z,75.95
2023-03-23T18:47:05.242Z,75.18
2023-03-23T18:49:34.218Z,75.54
2023-03-23T18:52:01.218Z,75.49
2023-03-23T18:54:28.667Z,75.90
2023-03-23T18:56:55.995Z,75.85
2023-03-23T18:59:30.662Z,75.65
2023-03-23T19:01:58.012Z,75.34
2023-03-23T19:04:25.003Z,75.29
2023-03-23T19:06:54.395Z,75.32
2023-03-23T19:09:23.211Z,75.38
2023-03-23T19:11:49.983Z,74.78
2023-03-23T19:14:19.525Z,74.63
2023-03-23T19:16:46.192Z,74.70
2023-03-23T19:19:15.598Z,74.41
2023-03-23T19:21:47.000Z,74.83
2023-03-23T19:24:14.142Z,74.31
2023-03-23T19:26:43.436Z,74.56
2023-03-23T19:29:25.391Z,75.15
2023-03-23T19:31:56.882Z,74.56
2023-03-23T19:34:28.259Z,74.04
2023-03-23T19:37:03.164Z,74.33
2023-03-23T19:39:33.373Z,74.12
2023-03-23T19:42:00.367Z,74.50
2023-03-23T19:44:28.702Z,74.15
2023-03-23T19:46:56.336Z,74.24
2023-03-23T19:49:24.633Z,73.95
2023-03-23T19:51:52.755Z,73.71
2023-03-23T19:54:36.670Z,74.30
2023-03-23T19:57:08.176Z,74.18
2023-03-23T19:59:35.233Z,73.94
2023-03-23T20:02:02.259Z,74.23
2023-03-23T20:04:29.341Z,73.43
2023-03-23T20:06:59.053Z,73.49
2023-03-23T20:09:26.159Z,73.24
2023-03-23T20:11:53.616Z,73.81
2023-03-23T20:14:20.762Z,73.70
2023-03-23T20:16:47.671Z,73.96
2023-03-23T20:19:17.672Z,73.90
2023-03-23T20:21:45.269Z,73.99
2023-03-23T20:24:12.664Z,73.69
2023-03-23T20:26:43.610Z,73.83
2023-03-23T20:29:10.612Z,74.15
2023-03-23T20:31:40.022Z,73.98
2023-03-23T20:34:13.544Z,73.64
2023-03-23T20:36:45.317Z,74.43
2023-03-23T20:39:23.450Z,74.06
2023-03-23T20:41:54.719Z,74.22
2023-03-23T20:44:25.196Z,74.06
2023-03-23T20:46:53.457Z,74.54
2023-03-23T20:49:22.188Z,74.01
2023-03-23T20:51:52.091Z,73.85
2023-03-23T20:54:20.343Z,74.30
2023-03-23T20:56:50.591Z,74.62
2023-03-23T20:59:18.212Z,74.10
2023-03-23T21:01:44.957Z,74.45
2023-03-23T21:04:18.853Z,74.55
2023-03-23T21:06:49.340Z,74.39
2023-03-23T21:09:20.239Z,74.20
2023-03-23T21:11:47.494Z,74.41
2023-03-23T21:14:17.166Z,74.39
2023-03-23T21:16:44.483Z,74.54
2023-03-23T21:19:14.192Z,74.08
2023-03-23T21:21:56.797Z,74.54
2023-03-23T21:24:29.093Z,74.20
2023-03-23T21:26:58.823Z,74.49
2023-03-23T21:29:27.462Z,74.77
2023-03-23T21:32:07.677Z,74.86
2023-03-23T21:34:37.160Z,75.02
2023-03-23T21:37:04.294Z,75.23
2023-03-23T21:39:34.651Z,74.92
2023-03-23T21:42:02.699Z,74.76
2023-03-23T21:44:35.046Z,75.05
2023-03-23T21:47:04.751Z,74.92
2023-03-23T21:49:31.825Z,74.90
2023-03-23T21:51:58.536Z,75.21
2023-03-23T21:54:30.400Z,74.65
2023-03-23T21:56:58.801Z,74.69
2023-03-23T21:59:26.452Z,74.48
2023-03-23T22:01:54.233Z,75.17
2023-03-23T22:04:21.131Z,74.99
2023-03-23T22:06:48.058Z,74.54
2023-03-23T22:09:15.430Z,74.54
2023-03-23T22:11:42.249Z,74.83
2023-03-23T22:14:09.054Z,74.63
2023-03-23T22:16:35.891Z,75.10
2023-03-23T22:19:02.558Z,74.83
2023-03-23T22:21:29.794Z,74.26
2023-03-23T22:24:00.510Z,75.02
2023-03-23T22:26:28.576Z,74.21
2023-03-23T22:28:55.916Z,74.61
2023-03-23T22:31:26.744Z,74.26
2023-03-23T22:33:55.144Z,74.09
2023-03-23T22:36:26.092Z,73.79
2023-03-23T22:38:53.368Z,74.14
2023-03-23T22:41:26.838Z,74.28
2023-03-23T22:43:56.198Z,73.89
2023-03-23T22:46:23.203Z,74.07
2023-03-23T22:48:49.898Z,73.96
2023-03-23T22:51:20.397Z,74.16
2023-03-23T22:53:49.855Z,74.12
2023-03-23T22:56:17.035Z,74.17
2023-03-23T22:58:44.205Z,74.59
2023-03-23T23:01:17.767Z,73.81
2023-03-23T23:03:45.535Z,73.42
2023-03-23T23:06:14.439Z,73.35
2023-03-23T23:08:41.680Z,73.25
2023-03-23T23:11:12.732Z,73.78
2023-03-23T23:13:45.017Z,73.27
2023-03-23T23:16:13.194Z,73.40
2023-03-23T23:18:40.728Z,73.37
2023-03-23T23:21:14.373Z,73.33
2023-03-23T23:23:44.849Z,74.13
2023-03-23T23:26:14.374Z,73.85
2023-03-23T23:28:42.453Z,73.45
2023-03-23T23:31:22.677Z,73.59
2023-03-23T23:33:49.904Z,73.98
2023-03-23T23:36:19.187Z,73.51
2023-03-23T23:38:45.848Z,74.20
2023-03-23T23:41:12.549Z,73.96
2023-03-23T23:43:39.386Z,73.83
2023-03-23T23:46:07.150Z,73.88
2023-03-23T23:48:34.372Z,73.80
2023-03-23T23:51:01.339Z,73.53
2023-03-23T23:53:31.419Z,74.00
2023-03-23T23:56:02.489Z,73.76
2023-03-23T23:58:33.946Z,74.35
